Time;durP1;ratioP1;P1;durP2;ratioP2;P2;SDS_P1;SDS_P2;PMS_P1;PMS_P2;Temp;Humidity;BMP_temperature;BMP_pressure;BME280_temperature;BME280_humidity;BME280_pressure;Samples;Min_cycle;Max_cycle;Signal;HPM_P1;HPM_P2
2020/12/29 00:01:38;;;;;;;24.10;17.17;;;2.50;99.90;;;3.36;100.00;96902.50;4753738;30;20234;-62
2020/12/29 00:04:08;;;;;;;23.63;16.77;;;2.50;99.90;;;3.32;100.00;96902.19;4753847;30;20304;-63
2020/12/29 00:06:44;;;;;;;24.30;17.40;;;2.50;99.90;;;3.16;100.00;96910.31;4754399;30;20291;-63
2020/12/29 00:09:13;;;;;;;24.93;17.20;;;2.40;99.90;;;3.26;100.00;96905.88;4754331;30;20283;-63
2020/12/29 00:11:41;;;;;;;24.90;17.73;;;2.40;99.90;;;3.16;100.00;96895.13;4753886;30;20235;-63
2020/12/29 00:14:10;;;;;;;24.43;17.17;;;2.40;99.90;;;3.36;100.00;96905.16;4753845;30;20663;-63
2020/12/29 00:16:37;;;;;;;25.87;17.07;;;2.40;99.90;;;3.35;100.00;96907.00;4754164;30;20298;-63
2020/12/29 00:19:06;;;;;;;24.47;16.67;;;2.40;99.90;;;3.55;100.00;96903.72;4754122;30;20314;-62
2020/12/29 00:21:33;;;;;;;23.60;15.77;;;2.50;99.90;;;3.54;100.00;96910.88;4753843;30;20299;-62
2020/12/29 00:24:00;;;;;;;22.20;16.33;;;2.60;99.90;;;3.29;100.00;96909.88;4753966;30;20318;-62
2020/12/29 00:26:28;;;;;;;23.67;16.37;;;2.50;99.90;;;2.98;100.00;96908.81;4740317;30;20665;-62
2020/12/29 00:28:55;;;;;;;22.27;16.10;;;2.40;99.90;;;2.71;100.00;96907.19;4736419;30;20216;-62
2020/12/29 00:31:24;;;;;;;23.00;16.10;;;2.20;99.90;;;2.70;100.00;96914.38;4736403;30;20233;-62
2020/12/29 00:33:55;;;;;;;23.23;17.00;;;2.10;99.90;;;2.60;100.00;96902.84;4736037;30;20248;-62
2020/12/29 00:36:23;;;;;;;23.20;16.13;;;2.00;99.90;;;2.47;100.00;96909.31;4736415;30;20198;-63
2020/12/29 00:38:50;;;;;;;24.97;16.30;;;1.80;99.90;;;3.16;100.00;96905.78;4736051;30;20688;-63
2020/12/29 00:41:17;;;;;;;24.43;16.37;;;1.90;99.90;;;3.12;100.00;96906.53;4736088;30;20213;-61
2020/12/29 00:43:45;;;;;;;22.33;15.63;;;2.00;99.90;;;3.29;100.00;96917.88;4735849;30;20700;-62
2020/12/29 00:46:15;;;;;;;22.87;15.33;;;2.20;99.90;;;3.23;100.00;96921.53;4736191;30;20217;-62
2020/12/29 00:48:44;;;;;;;21.90;15.73;;;2.20;99.90;;;3.21;100.00;96921.00;4735462;30;20492;-62
2020/12/29 00:51:15;;;;;;;21.67;15.90;;;2.30;99.90;;;3.07;100.00;96925.91;4735883;30;20240;-62
2020/12/29 00:53:42;;;;;;;20.57;14.97;;;2.30;99.90;;;2.87;100.00;96917.75;4735822;30;20773;-62
2020/12/29 00:56:11;;;;;;;22.73;15.07;;;2.20;99.90;;;2.89;100.00;96912.19;4735864;30;20292;-64
2020/12/29 00:58:40;;;;;;;21.80;15.43;;;2.00;99.90;;;3.17;100.00;96918.03;4735472;30;20596;-63
2020/12/29 01:01:10;;;;;;;20.87;14.23;;;2.10;99.90;;;3.18;100.00;96921.50;4736092;30;20349;-62
2020/12/29 01:03:39;;;;;;;20.97;14.80;;;2.10;99.90;;;3.15;100.00;96928.13;4735436;30;20208;-63
2020/12/29 01:06:07;;;;;;;21.17;14.90;;;2.10;99.90;;;2.95;100.00;96927.91;4735742;30;20288;-62
2020/12/29 01:08:35;;;;;;;21.23;13.97;;;2.10;99.90;;;2.97;100.00;96938.31;4735668;30;20217;-63
2020/12/29 01:11:02;;;;;;;18.33;14.10;;;2.10;99.90;;;2.91;100.00;96931.34;4735493;30;20237;-62
2020/12/29 01:13:30;;;;;;;23.60;14.47;;;2.10;99.90;;;2.83;100.00;96932.56;4735618;30;20278;-62
2020/12/29 01:15:57;;;;;;;20.93;14.70;;;2.00;99.90;;;2.93;100.00;96926.56;4746038;30;20244;-62
2020/12/29 01:18:25;;;;;;;21.50;14.13;;;2.00;99.90;;;2.63;100.00;96927.06;4753005;30;20204;-63
2020/12/29 01:20:52;;;;;;;20.70;14.83;;;1.90;99.90;;;2.68;100.00;96924.44;4753302;30;20208;-63
2020/12/29 01:23:20;;;;;;;20.37;13.73;;;1.80;99.90;;;2.90;100.00;96916.44;4753145;30;20216;-62
2020/12/29 01:25:48;;;;;;;20.23;13.80;;;1.90;99.90;;;2.95;100.00;96925.25;4753085;30;20300;-63
2020/12/29 01:28:15;;;;;;;19.80;14.00;;;1.90;99.90;;;2.78;100.00;96931.72;4753073;30;20247;-62
2020/12/29 01:30:43;;;;;;;22.30;14.87;;;1.90;99.90;;;2.77;100.00;96925.63;4752725;30;20264;-62
2020/12/29 01:33:11;;;;;;;19.50;13.87;;;1.80;99.90;;;2.99;100.00;96928.22;4752732;30;20239;-62
2020/12/29 01:35:39;;;;;;;19.43;14.07;;;1.90;99.90;;;2.95;100.00;96922.59;4752765;30;20216;-62
2020/12/29 01:38:06;;;;;;;19.97;14.40;;;2.00;99.90;;;2.97;100.00;96933.00;4752717;30;20795;-62
2020/12/29 01:40:35;;;;;;;18.53;13.10;;;2.00;99.90;;;2.92;100.00;96940.91;4752830;30;20301;-61
2020/12/29 01:43:03;;;;;;;18.40;12.93;;;2.10;99.90;;;2.87;100.00;96946.97;4752955;30;20581;-63
2020/12/29 01:45:30;;;;;;;18.53;13.87;;;2.00;99.90;;;2.90;100.00;96941.16;4752551;30;20759;-62
2020/12/29 01:47:58;;;;;;;22.30;14.27;;;2.10;99.90;;;2.98;100.00;96937.22;4752495;30;20243;-62
2020/12/29 01:50:26;;;;;;;18.77;13.07;;;2.10;99.90;;;2.84;100.00;96949.34;4752352;30;20333;-63
2020/12/29 01:52:59;;;;;;;17.97;12.80;;;2.10;99.90;;;2.65;100.00;96953.38;4752417;30;20296;-63
2020/12/29 01:55:28;;;;;;;18.57;12.80;;;2.00;99.90;;;2.62;100.00;96941.41;4752468;30;20617;-63
2020/12/29 01:58:00;;;;;;;17.80;13.23;;;1.90;99.90;;;2.41;100.00;96943.00;4752641;30;20307;-64
2020/12/29 02:00:28;;;;;;;18.77;13.87;;;1.80;99.90;;;2.37;100.00;96947.19;4751987;30;20833;-63
2020/12/29 02:02:57;;;;;;;18.83;13.27;;;1.70;99.90;;;2.27;100.00;96955.03;4752291;30;20212;-63
2020/12/29 02:05:27;;;;;;;17.70;13.10;;;1.70;99.90;;;2.66;100.00;96954.97;4752280;30;20584;-61
2020/12/29 02:07:54;;;;;;;17.77;12.77;;;1.70;99.90;;;2.36;100.00;96944.78;4752452;30;20239;-62
2020/12/29 02:10:22;;;;;;;18.97;12.93;;;1.60;99.90;;;2.83;100.00;96955.69;4752225;30;20267;-63
2020/12/29 02:12:49;;;;;;;15.83;12.27;;;1.70;99.90;;;3.03;100.00;96958.56;4752420;30;20299;-62
2020/12/29 02:15:17;;;;;;;17.43;12.97;;;1.80;99.90;;;2.92;100.00;96957.66;4751832;30;20247;-62
2020/12/29 02:17:45;;;;;;;17.27;12.20;;;1.90;99.90;;;2.80;100.00;96969.47;4752043;30;20295;-62
2020/12/29 02:20:12;;;;;;;15.73;12.17;;;1.90;99.90;;;2.59;100.00;96959.69;4752274;30;20869;-62
2020/12/29 02:22:40;;;;;;;16.93;12.27;;;1.80;99.90;;;2.30;100.00;96954.53;4751950;30;20247;-63
2020/12/29 02:25:10;;;;;;;17.57;12.67;;;1.70;99.90;;;2.25;100.00;96946.50;4752073;30;20216;-62
2020/12/29 02:27:46;;;;;;;18.60;13.23;;;1.60;99.90;;;2.59;100.00;96963.13;4752195;30;20235;-63
2020/12/29 02:30:14;;;;;;;17.30;12.40;;;1.60;99.90;;;2.53;100.00;96974.75;4751888;30;20250;-63
2020/12/29 02:32:41;;;;;;;18.80;12.77;;;1.60;99.90;;;2.20;100.00;96975.66;4751510;30;20311;-62
2020/12/29 02:35:11;;;;;;;18.20;13.07;;;1.50;99.90;;;2.00;100.00;96964.75;4752066;30;20220;-63
2020/12/29 02:37:40;;;;;;;17.60;12.20;;;1.30;99.90;;;1.71;100.00;96954.50;4752154;30;20625;-63
2020/12/29 02:40:07;;;;;;;17.73;12.23;;;1.20;99.90;;;1.57;100.00;96963.84;4751567;30;20303;-63
2020/12/29 02:42:34;;;;;;;17.57;13.47;;;1.00;99.90;;;1.94;100.00;96967.56;4751573;30;20212;-62
2020/12/29 02:45:01;;;;;;;20.17;13.23;;;1.00;99.90;;;1.66;100.00;96973.00;4751309;30;20737;-62
2020/12/29 02:47:28;;;;;;;20.43;13.27;;;1.00;99.90;;;1.41;100.00;96965.44;4751473;30;20312;-63
2020/12/29 02:49:56;;;;;;;20.60;13.73;;;0.90;99.90;;;1.66;100.00;96975.66;4751337;30;20270;-63
2020/12/29 02:52:23;;;;;;;17.77;12.87;;;0.80;99.90;;;1.92;100.00;96973.13;4751657;30;20299;-62
2020/12/29 02:54:51;;;;;;;17.20;12.97;;;0.80;99.90;;;2.34;100.00;96973.44;4751261;30;20216;-63
2020/12/29 02:57:18;;;;;;;18.77;13.53;;;1.10;99.90;;;2.35;100.00;96980.38;4751646;30;20311;-63
2020/12/29 02:59:45;;;;;;;18.63;13.23;;;1.20;99.90;;;2.30;100.00;96981.09;4751544;30;20236;-63
2020/12/29 03:02:13;;;;;;;18.23;12.43;;;1.20;99.90;;;2.20;100.00;96972.19;4751302;30;20239;-62
2020/12/29 03:04:40;;;;;;;18.30;12.57;;;1.20;99.90;;;1.84;100.00;96981.50;4751234;30;20299;-63
2020/12/29 03:07:07;;;;;;;18.13;13.20;;;1.10;99.90;;;1.85;100.00;96982.28;4751520;30;20208;-63
2020/12/29 03:09:35;;;;;;;18.93;12.80;;;1.00;99.90;;;1.85;100.00;96987.59;4751526;30;20215;-63
2020/12/29 03:12:03;;;;;;;18.33;12.90;;;1.00;99.90;;;2.09;100.00;96984.53;4751008;30;20703;-63
2020/12/29 03:14:30;;;;;;;19.80;13.40;;;1.10;99.90;;;1.94;100.00;96983.50;4751252;30;20640;-63
2020/12/29 03:16:57;;;;;;;17.63;13.30;;;1.10;99.90;;;1.66;100.00;96988.91;4751071;30;20240;-62
2020/12/29 03:19:25;;;;;;;17.97;12.73;;;1.00;99.90;;;1.95;100.00;96991.22;4747849;30;20307;-63
2020/12/29 03:21:52;;;;;;;17.07;12.13;;;1.00;99.90;;;1.71;100.00;97000.38;4732887;30;20244;-62
2020/12/29 03:24:20;;;;;;;16.20;12.23;;;1.00;99.90;;;2.07;100.00;96994.59;4733398;30;20752;-62
2020/12/29 03:26:47;;;;;;;18.43;13.70;;;1.00;99.90;;;2.55;100.00;96995.75;4733482;30;20209;-62
2020/12/29 03:29:15;;;;;;;14.73;11.27;;;1.20;99.90;;;2.28;100.00;97001.75;4733248;30;20217;-63
2020/12/29 03:31:44;;;;;;;16.20;11.50;;;1.30;99.90;;;2.16;100.00;97003.75;4733309;30;20327;-63
2020/12/29 03:34:21;;;;;;;17.10;12.73;;;1.30;99.90;;;2.44;100.00;97018.72;4732721;30;20299;-62
2020/12/29 03:36:49;;;;;;;18.70;12.33;;;1.50;99.90;;;2.56;100.00;97019.41;4733322;30;20660;-62
2020/12/29 03:39:17;;;;;;;15.40;11.37;;;1.50;99.90;;;2.28;100.00;97024.88;4733569;30;20296;-62
2020/12/29 03:41:44;;;;;;;16.37;12.00;;;1.50;99.90;;;1.97;100.00;97028.13;4733457;30;20236;-62
2020/12/29 03:44:12;;;;;;;16.03;12.10;;;1.30;99.90;;;2.10;100.00;97023.28;4733424;30;20223;-62
2020/12/29 03:46:40;;;;;;;16.13;11.97;;;1.30;99.90;;;2.26;100.00;97033.09;4733469;30;20277;-63
2020/12/29 03:49:07;;;;;;;17.17;12.03;;;1.30;99.90;;;2.43;100.00;97027.75;4732918;30;20420;-62
2020/12/29 03:51:34;;;;;;;17.43;12.13;;;1.40;99.90;;;2.49;100.00;97027.56;4733342;30;20232;-63
2020/12/29 03:54:02;;;;;;;14.40;10.97;;;1.50;99.90;;;2.29;100.00;97026.47;4733367;30;20217;-62
2020/12/29 03:56:29;;;;;;;17.10;12.37;;;1.40;99.90;;;2.55;100.00;97020.47;4733320;30;20221;-62
2020/12/29 03:58:56;;;;;;;15.60;11.10;;;1.50;99.90;;;2.52;100.00;97025.47;4733449;30;20316;-63
2020/12/29 04:01:23;;;;;;;14.60;11.33;;;1.50;99.90;;;2.32;100.00;97020.66;4733278;30;20241;-63
2020/12/29 04:03:52;;;;;;;15.83;11.57;;;1.50;99.90;;;2.30;100.00;97017.47;4732976;30;20211;-63
2020/12/29 04:06:19;;;;;;;18.03;11.30;;;1.40;99.90;;;2.35;100.00;97028.16;4733332;30;20251;-62
2020/12/29 04:08:46;;;;;;;16.40;11.40;;;1.40;99.90;;;2.55;100.00;97032.94;4733205;30;20240;-63
2020/12/29 04:11:14;;;;;;;15.20;10.97;;;1.50;99.90;;;2.44;100.00;97032.81;4732830;30;20803;-63
2020/12/29 04:13:53;;;;;;;12.37;10.23;;;1.50;99.90;;;2.48;100.00;97039.25;4733170;30;20201;-62
2020/12/29 04:16:21;;;;;;;14.03;10.50;;;1.60;99.90;;;2.52;100.00;97049.38;4746812;30;20253;-62
2020/12/29 04:18:50;;;;;;;14.37;10.30;;;1.50;99.90;;;2.12;100.00;97052.25;4750553;30;20219;-63
2020/12/29 04:21:18;;;;;;;17.10;10.93;;;1.40;99.90;;;2.09;100.00;97050.88;4750413;30;20208;-62
2020/12/29 04:23:45;;;;;;;15.73;10.97;;;1.30;99.90;;;2.37;100.00;97063.22;4750898;30;20291;-62
2020/12/29 04:26:14;;;;;;;15.03;10.90;;;1.30;99.90;;;2.36;100.00;97054.47;4750639;30;20299;-64
2020/12/29 04:28:42;;;;;;;14.33;10.37;;;1.40;99.90;;;1.92;100.00;97059.88;4750310;30;20260;-63
2020/12/29 04:31:13;;;;;;;15.90;10.70;;;1.30;99.90;;;2.20;100.00;97055.28;4750274;30;20282;-62
2020/12/29 04:33:41;;;;;;;15.47;10.67;;;1.30;99.90;;;2.17;100.00;97049.66;4750229;30;20369;-62
2020/12/29 04:36:09;;;;;;;14.57;11.03;;;1.30;99.90;;;2.02;100.00;97044.94;4750614;30;20220;-63
2020/12/29 04:38:38;;;;;;;17.10;11.20;;;1.20;99.90;;;1.98;100.00;97054.41;4750570;30;20216;-62
2020/12/29 04:41:06;;;;;;;13.03;9.93;;;1.10;99.90;;;2.24;100.00;97061.72;4750561;30;20268;-62
2020/12/29 04:43:35;;;;;;;16.87;10.63;;;1.10;99.90;;;2.31;100.00;97050.94;4750308;30;20583;-62
2020/12/29 04:46:04;;;;;;;13.53;9.87;;;1.20;99.90;;;1.86;100.00;97037.78;4751325;30;20208;-62
2020/12/29 04:48:32;;;;;;;16.53;10.73;;;1.10;99.90;;;1.77;100.00;97036.56;4753392;30;20235;-62
2020/12/29 04:51:05;;;;;;;16.73;11.60;;;1.00;99.90;;;1.44;100.00;97035.75;4753369;30;20223;-63
2020/12/29 04:53:36;;;;;;;16.40;11.20;;;0.90;99.90;;;1.69;100.00;97039.59;4753815;30;20217;-62
2020/12/29 04:56:06;;;;;;;15.47;11.23;;;0.90;99.90;;;1.62;100.00;97049.59;4753344;30;20333;-63
2020/12/29 04:58:37;;;;;;;16.33;11.40;;;0.80;99.90;;;1.82;100.00;97039.31;4753330;30;20210;-62
2020/12/29 05:01:06;;;;;;;17.10;11.97;;;0.90;99.90;;;1.98;100.00;97035.84;4753683;30;20299;-62
2020/12/29 05:03:46;;;;;;;16.40;11.27;;;1.00;99.90;;;2.23;100.00;97030.91;4753405;30;20197;-63
2020/12/29 05:06:14;;;;;;;15.13;10.83;;;1.10;99.90;;;2.39;100.00;97022.13;4753469;30;20247;-62
2020/12/29 05:08:46;;;;;;;15.20;10.87;;;1.30;99.90;;;1.89;100.00;97039.16;4753466;30;20291;-63
2020/12/29 05:11:15;;;;;;;16.00;11.33;;;1.10;99.90;;;1.96;100.00;97043.22;4753295;30;20605;-61
2020/12/29 05:13:43;;;;;;;15.07;10.73;;;1.10;99.90;;;2.07;100.00;97036.25;4753218;30;20212;-62
2020/12/29 05:16:11;;;;;;;14.93;10.90;;;1.00;99.90;;;2.17;100.00;97025.75;4753308;30;20242;-62
2020/12/29 05:18:38;;;;;;;14.27;10.03;;;1.20;99.90;;;1.92;100.00;97042.13;4752944;30;20295;-62
2020/12/29 05:21:06;;;;;;;14.73;10.50;;;1.10;99.90;;;2.32;100.00;97041.91;4752942;30;20212;-63
2020/12/29 05:23:36;;;;;;;17.37;11.23;;;1.20;99.90;;;2.04;100.00;97050.81;4752854;30;20710;-63
2020/12/29 05:26:04;;;;;;;15.27;10.97;;;1.10;99.90;;;1.93;100.00;97061.50;4753023;30;20302;-62
2020/12/29 05:28:33;;;;;;;14.70;10.47;;;1.10;99.90;;;1.48;100.00;97061.53;4752675;30;20675;-62
2020/12/29 05:31:03;;;;;;;15.57;10.80;;;1.00;99.90;;;1.70;100.00;97070.41;4752811;30;20788;-63
2020/12/29 05:33:31;;;;;;;16.37;11.80;;;0.90;99.90;;;1.53;100.00;97069.59;4752595;30;20471;-63
2020/12/29 05:36:02;;;;;;;15.73;10.70;;;0.80;99.90;;;1.48;100.00;97076.63;4753022;30;20243;-63
2020/12/29 05:38:30;;;;;;;15.57;10.90;;;0.80;99.90;;;1.36;100.00;97079.34;4752776;30;20250;-63
2020/12/29 05:40:59;;;;;;;15.70;10.97;;;0.70;99.90;;;1.41;100.00;97071.47;4752881;30;20730;-63
2020/12/29 05:43:32;;;;;;;16.37;11.07;;;0.60;99.90;;;1.71;100.00;97084.50;4752960;30;20208;-64
2020/12/29 05:46:01;;;;;;;16.40;10.67;;;0.70;99.90;;;2.18;100.00;97081.28;4752785;30;20195;-63
2020/12/29 05:48:28;;;;;;;14.30;10.10;;;0.90;99.90;;;2.29;100.00;97087.53;4752391;30;20560;-63
2020/12/29 05:50:55;;;;;;;15.73;10.50;;;1.10;99.90;;;2.45;100.00;97076.91;4752681;30;20306;-64
2020/12/29 05:53:24;;;;;;;12.77;9.57;;;1.20;99.90;;;2.08;100.00;97085.63;4752703;30;20214;-63
2020/12/29 05:55:54;;;;;;;13.07;9.83;;;1.20;99.90;;;1.80;100.00;97083.03;4752787;30;20299;-62
2020/12/29 05:58:23;;;;;;;15.03;10.70;;;1.10;99.90;;;1.53;100.00;97088.16;4751772;30;20307;-61
2020/12/29 06:00:51;;;;;;;13.07;9.40;;;0.90;99.90;;;1.48;100.00;97098.66;4752369;30;20266;-62
2020/12/29 06:03:20;;;;;;;14.57;10.37;;;0.80;99.90;;;1.27;100.00;97099.31;4752404;30;20247;-63
2020/12/29 06:05:49;;;;;;;13.87;10.23;;;0.70;99.90;;;1.37;100.00;97098.72;4752647;30;20213;-63
2020/12/29 06:08:17;;;;;;;15.10;11.03;;;0.60;99.90;;;1.40;100.00;97104.34;4752212;30;20216;-63
2020/12/29 06:11:03;;;;;;;16.90;10.67;;;0.70;99.90;;;1.30;100.00;97112.13;4752255;30;20231;-62
2020/12/29 06:13:38;;;;;;;17.47;11.00;;;0.70;99.90;;;1.16;100.00;97114.25;4752430;30;20287;-63
2020/12/29 06:16:06;;;;;;;14.97;10.13;;;0.60;99.90;;;1.34;100.00;97118.53;4752344;30;20201;-63
2020/12/29 06:18:36;;;;;;;14.73;9.97;;;0.60;99.90;;;1.27;100.00;97118.69;4751808;30;20260;-63
2020/12/29 06:21:08;;;;;;;13.33;9.87;;;0.60;99.90;;;1.38;100.00;97122.34;4752444;30;20208;-62
2020/12/29 06:23:44;;;;;;;13.43;9.67;;;0.60;99.90;;;1.55;100.00;97125.03;4752279;30;20203;-63
2020/12/29 06:26:18;;;;;;;13.73;9.90;;;0.60;99.90;;;1.53;100.00;97130.56;4752097;30;20290;-62
2020/12/29 06:28:49;;;;;;;13.00;9.33;;;0.60;99.90;;;1.53;100.00;97129.75;4752071;30;20200;-64
2020/12/29 06:31:29;;;;;;;13.60;9.30;;;0.60;99.90;;;1.63;100.00;97125.47;4752061;30;20306;-62
2020/12/29 06:33:58;;;;;;;13.77;9.43;;;0.70;99.90;;;1.51;100.00;97135.31;4752050;30;20220;-63
2020/12/29 06:36:29;;;;;;;14.07;9.93;;;0.70;99.90;;;1.76;100.00;97125.16;4752075;30;20203;-62
2020/12/29 06:39:06;;;;;;;12.57;8.83;;;0.80;99.90;;;1.83;100.00;97130.31;4751938;30;20220;-62
2020/12/29 06:41:39;;;;;;;13.20;9.27;;;0.90;99.90;;;2.20;100.00;97139.44;4751465;30;20262;-62
2020/12/29 06:44:07;;;;;;;11.43;8.07;;;1.00;99.90;;;2.02;100.00;97142.31;4752557;30;20239;-63
2020/12/29 06:46:35;;;;;;;11.77;8.67;;;1.10;99.90;;;2.15;100.00;97137.50;4752683;30;20212;-62
2020/12/29 06:49:20;;;;;;;11.27;8.80;;;1.10;99.90;;;2.21;100.00;97146.38;4752275;30;20271;-63
2020/12/29 06:51:48;;;;;;;11.17;8.33;;;1.20;99.90;;;2.29;100.00;97145.97;4752524;30;20322;-63
2020/12/29 06:54:20;;;;;;;11.30;8.17;;;1.20;99.90;;;2.44;100.00;97144.34;4752300;30;20709;-63
2020/12/29 06:57:00;;;;;;;10.47;7.93;;;1.40;99.90;;;2.56;100.00;97143.44;4752117;30;20228;-62
2020/12/29 06:59:39;;;;;;;11.87;8.33;;;1.50;99.90;;;2.63;100.00;97149.41;4752065;30;20263;-62
2020/12/29 07:02:23;;;;;;;10.67;8.13;;;1.50;99.90;;;2.53;100.00;97147.41;4752128;30;20223;-62
2020/12/29 07:04:55;;;;;;;11.03;8.07;;;1.60;99.90;;;2.43;100.00;97150.72;4750657;30;20220;-63
2020/12/29 07:07:33;;;;;;;10.43;7.70;;;1.60;99.90;;;2.39;100.00;97159.41;4752277;30;20226;-63
2020/12/29 07:10:10;;;;;;;10.23;7.63;;;1.60;99.90;;;2.39;100.00;97154.91;4751994;30;20280;-64
2020/12/29 07:12:43;;;;;;;10.73;7.40;;;1.60;99.90;;;2.43;100.00;97161.34;4751886;30;20221;-63
2020/12/29 07:15:15;;;;;;;10.73;7.50;;;1.50;99.90;;;2.39;100.00;97170.84;4751828;30;20228;-62
2020/12/29 07:18:02;;;;;;;9.50;7.13;;;1.60;99.90;;;2.23;100.00;97168.97;4751553;30;20291;-62
2020/12/29 07:20:34;;;;;;;10.73;7.63;;;1.50;99.90;;;2.20;100.00;97172.09;4752136;30;20670;-62
2020/12/29 07:23:07;;;;;;;10.33;7.03;;;1.50;99.90;;;2.00;100.00;97165.63;4752173;30;20279;-63
2020/12/29 07:25:37;;;;;;;10.00;7.37;;;1.30;99.90;;;1.88;100.00;97175.50;4751780;30;20203;-62
2020/12/29 07:28:07;;;;;;;9.30;7.00;;;1.20;99.90;;;2.01;100.00;97165.41;4751931;30;20278;-62
2020/12/29 07:30:35;;;;;;;9.83;7.30;;;1.20;99.90;;;2.24;100.00;97167.13;4751792;30;20265;-63
2020/12/29 07:33:06;;;;;;;9.53;7.00;;;1.30;99.90;;;2.44;100.00;97170.91;4751417;30;20212;-62
2020/12/29 07:35:36;;;;;;;8.63;6.87;;;1.50;99.90;;;2.41;100.00;97170.59;4752002;30;20271;-63
2020/12/29 07:38:12;;;;;;;10.67;7.30;;;1.50;99.90;;;2.92;100.00;97178.28;4751596;30;20248;-62
2020/12/29 07:40:39;;;;;;;7.87;6.03;;;1.70;99.90;;;3.23;100.00;97174.19;4751870;30;20295;-62
2020/12/29 07:43:07;;;;;;;8.27;6.60;;;1.90;99.90;;;3.19;100.00;97173.88;4751489;30;20248;-62
2020/12/29 07:45:35;;;;;;;7.07;5.60;;;2.10;99.90;;;3.35;100.00;97180.16;4750902;30;20208;-66
2020/12/29 07:48:05;;;;;;;8.17;6.30;;;2.30;99.90;;;3.39;100.00;97176.78;4750700;30;20635;-67
2020/12/29 07:50:34;;;;;;;7.57;5.80;;;2.40;99.90;;;3.58;99.65;97188.72;4750578;30;20244;-67
2020/12/29 07:53:05;;;;;;;7.17;5.77;;;2.50;99.90;;;3.62;99.44;97192.47;4750803;30;20248;-66
2020/12/29 07:55:33;;;;;;;7.07;5.33;;;2.60;99.90;;;3.70;99.11;97196.56;4750731;30;20257;-66
2020/12/29 07:58:05;;;;;;;7.37;5.33;;;2.70;99.90;;;3.54;100.00;97198.25;4750980;30;20252;-67
2020/12/29 08:00:37;;;;;;;6.90;5.77;;;2.70;99.90;;;3.68;100.00;97204.00;4751733;30;20226;-66
2020/12/29 08:03:05;;;;;;;6.97;5.40;;;2.80;99.90;;;3.65;99.79;97205.28;4751930;30;20265;-66
2020/12/29 08:05:35;;;;;;;6.43;5.00;;;2.80;99.90;;;3.64;99.41;97211.69;4751049;30;20290;-67
2020/12/29 08:08:06;;;;;;;6.73;5.40;;;2.90;99.90;;;3.73;100.00;97210.19;4750675;30;20644;-67
2020/12/29 08:10:36;;;;;;;6.33;5.33;;;2.90;99.90;;;3.88;98.71;97204.22;4751064;30;20279;-66
2020/12/29 08:13:05;;;;;;;6.40;5.63;;;2.90;99.90;;;3.99;98.38;97211.25;4751040;30;20282;-67
2020/12/29 08:15:34;;;;;;;6.73;5.63;;;3.10;99.90;;;3.81;99.60;97210.78;4750594;30;20285;-67
2020/12/29 08:18:08;;;;;;;7.50;6.17;;;3.00;99.90;;;4.11;98.09;97214.56;4750754;30;20304;-66
2020/12/29 08:20:44;;;;;;;6.13;5.30;;;3.10;99.90;;;4.20;97.59;97225.59;4751093;30;20634;-67
2020/12/29 08:23:12;;;;;;;7.53;5.20;;;3.20;99.90;;;4.03;98.70;97230.19;4754625;30;20251;-67
2020/12/29 08:25:39;;;;;;;7.50;5.63;;;3.20;99.90;;;4.04;98.72;97226.50;4754535;30;20220;-67
2020/12/29 08:28:08;;;;;;;6.27;5.17;;;3.20;99.90;;;4.15;98.33;97231.69;4754417;30;20248;-67
2020/12/29 08:30:36;;;;;;;7.27;5.60;;;3.20;99.90;;;4.20;97.13;97228.25;4754100;30;20267;-67
2020/12/29 08:33:07;;;;;;;6.50;5.53;;;3.30;99.90;;;4.18;97.79;97236.50;4754074;30;20236;-68
2020/12/29 08:35:44;;;;;;;5.67;5.07;;;3.30;99.90;;;4.18;97.90;97231.16;4753997;30;20197;-68
2020/12/29 08:38:44;;;;;;;7.33;5.30;;;3.40;99.90;;;4.27;97.54;97243.00;4753937;30;20266;-69
2020/12/29 08:41:21;;;;;;;6.23;5.30;;;3.40;99.90;;;4.20;98.13;97246.91;4754084;30;20208;-67
2020/12/29 08:43:51;;;;;;;6.00;5.07;;;3.40;99.90;;;4.14;98.39;97246.06;4754035;30;20300;-68
2020/12/29 08:46:21;;;;;;;5.60;4.90;;;3.40;99.90;;;4.13;98.60;97252.44;4749930;30;20279;-60
2020/12/29 08:48:55;;;;;;;6.23;5.37;;;3.30;99.90;;;3.95;100.00;97258.09;4740996;30;20323;-62
2020/12/29 08:51:29;;;;;;;6.93;5.20;;;3.20;99.90;;;4.31;98.51;97262.72;4750864;30;20223;-62
2020/12/29 08:54:08;;;;;;;6.93;4.83;;;3.30;99.90;;;4.52;97.23;97256.56;4750762;30;20241;-61
2020/12/29 08:56:36;;;;;;;6.10;4.60;;;3.50;99.90;;;4.69;96.35;97257.25;4750966;30;20614;-62
2020/12/29 08:59:11;;;;;;;5.00;4.50;;;3.60;99.90;;;4.71;96.16;97265.81;4750748;30;20300;-64
2020/12/29 09:01:41;;;;;;;5.10;4.37;;;3.70;99.90;;;4.89;95.08;97273.41;4750808;30;20255;-63
2020/12/29 09:04:27;;;;;;;5.53;4.83;;;3.80;99.90;;;5.12;94.25;97271.44;4750649;30;20653;-63
2020/12/29 09:07:00;;;;;;;4.97;4.47;;;4.10;99.90;;;5.27;93.10;97274.22;4740800;30;20201;-62
2020/12/29 09:09:29;;;;;;;5.10;4.60;;;4.20;99.90;;;5.62;91.18;97288.59;4732971;30;20610;-62
2020/12/29 09:12:14;;;;;;;4.67;4.17;;;4.50;99.90;;;5.83;89.76;97273.50;4732357;30;20774;-65
2020/12/29 09:14:55;;;;;;;4.87;4.37;;;4.70;99.90;;;5.90;89.28;97282.09;4733950;30;20229;-63
2020/12/29 09:17:24;;;;;;;4.27;3.77;;;4.80;99.90;;;6.07;88.93;97285.38;4750359;30;20204;-62
2020/12/29 09:20:19;;;;;;;4.67;4.20;;;4.90;99.90;;;6.30;87.90;97284.91;4749919;30;20757;-62
2020/12/29 09:22:56;;;;;;;4.40;4.00;;;5.20;99.90;;;6.19;87.43;97283.25;4750339;30;20275;-65
2020/12/29 09:25:28;;;;;;;5.00;4.20;;;5.20;99.90;;;6.18;87.91;97287.00;4749784;30;20195;-63
2020/12/29 09:28:19;;;;;;;3.80;3.47;;;5.20;99.90;;;6.10;87.66;97287.50;4749995;30;20272;-64
2020/12/29 09:30:58;;;;;;;4.17;3.77;;;5.20;99.90;;;5.91;89.00;97297.03;4741067;30;20393;-63
2020/12/29 09:33:27;;;;;;;4.13;3.60;;;5.10;99.90;;;5.90;89.17;97290.88;4714699;30;20290;-64
2020/12/29 09:35:58;;;;;;;3.77;3.37;;;5.10;99.90;;;6.01;88.93;97297.09;4714428;30;20281;-65
2020/12/29 09:38:26;;;;;;;5.17;4.00;;;5.10;99.90;;;5.78;89.25;97303.66;4714808;30;20259;-67
2020/12/29 09:40:58;;;;;;;4.33;3.83;;;5.00;99.90;;;5.84;89.62;97312.50;4714287;30;20682;-68
2020/12/29 09:43:26;;;;;;;5.30;4.80;;;4.90;99.90;;;5.84;89.72;97312.50;4714552;30;20240;-68
2020/12/29 09:45:54;;;;;;;4.70;4.23;;;5.00;99.90;;;5.75;90.16;97320.16;4714306;30;20641;-62
2020/12/29 09:48:21;;;;;;;4.33;3.70;;;4.90;99.90;;;5.69;90.14;97312.38;4714508;30;20231;-61
2020/12/29 09:50:48;;;;;;;4.90;3.90;;;4.90;99.90;;;5.64;90.72;97321.19;4714323;30;20220;-63
2020/12/29 09:53:16;;;;;;;5.67;4.13;;;4.90;99.90;;;5.72;90.18;97322.53;4714387;30;20278;-64
2020/12/29 09:55:43;;;;;;;4.07;3.67;;;4.90;99.90;;;5.78;91.09;97333.03;4713739;30;20305;-62
2020/12/29 09:58:11;;;;;;;4.50;3.90;;;4.90;99.90;;;5.91;89.94;97334.44;4714240;30;20217;-63
2020/12/29 10:00:38;;;;;;;4.10;3.70;;;4.90;99.90;;;5.77;89.74;97334.06;4713685;30;20769;-63
2020/12/29 10:03:06;;;;;;;4.27;3.87;;;4.90;99.90;;;6.09;89.15;97336.66;4714263;30;20328;-63
2020/12/29 10:05:34;;;;;;;4.50;3.40;;;5.00;99.90;;;6.09;88.83;97342.00;4713913;30;20552;-64
2020/12/29 10:08:01;;;;;;;4.23;3.30;;;5.10;99.90;;;6.11;88.19;97340.69;4714101;30;20247;-63
2020/12/29 10:10:29;;;;;;;4.77;3.97;;;5.10;99.90;;;6.21;88.81;97342.59;4714051;30;20262;-67
2020/12/29 10:12:57;;;;;;;4.37;3.63;;;5.10;99.90;;;6.38;87.03;97348.53;4713899;30;20704;-67
2020/12/29 10:15:24;;;;;;;5.30;3.60;;;5.20;99.90;;;6.41;88.19;97350.69;4726524;30;20268;-61
2020/12/29 10:17:51;;;;;;;3.83;3.50;;;5.30;99.90;;;6.53;87.18;97347.81;4748964;30;20309;-61
2020/12/29 10:20:19;;;;;;;3.77;3.47;;;5.40;99.90;;;6.51;87.28;97357.97;4748646;30;20308;-62
2020/12/29 10:22:46;;;;;;;4.53;3.87;;;5.40;99.90;;;6.63;87.14;97358.53;4748699;30;20245;-65
2020/12/29 10:25:15;;;;;;;3.90;3.50;;;5.50;99.90;;;6.57;85.87;97355.03;4748536;30;20215;-66
2020/12/29 10:27:44;;;;;;;4.47;3.40;;;5.50;99.90;;;6.65;86.11;97353.69;4748540;30;20641;-65
2020/12/29 10:30:11;;;;;;;3.77;3.23;;;5.60;99.90;;;6.63;86.66;97358.53;4747928;30;20240;-65